createdAt,value
2018-11-22T12:16:09.190Z,4.09
2018-11-22T12:21:11.348Z,4.14
2018-11-22T12:26:13.490Z,3.94
2018-11-22T12:31:15.639Z,4.13
2018-11-22T12:36:22.946Z,4.03
2018-11-22T12:41:25.096Z,3.86
2018-11-22T12:46:27.326Z,3.58
2018-11-22T12:51:29.480Z,3.66
2018-11-22T12:56:31.626Z,3.97
2018-11-22T13:01:33.793Z,4.05
2018-11-22T13:06:36.073Z,4.05
2018-11-22T13:11:39.049Z,3.86
2018-11-22T13:16:41.262Z,4.00
2018-11-22T13:21:43.386Z,4.19
2018-11-22T13:26:45.554Z,3.95
2018-11-22T13:31:47.680Z,3.97
2018-11-22T13:36:49.842Z,4.04
2018-11-22T13:41:52.014Z,4.01
2018-11-22T13:46:54.157Z,3.77
2018-11-22T13:51:56.280Z,3.70
2018-11-22T13:56:58.444Z,3.83
2018-11-22T14:02:00.582Z,3.86
2018-11-22T14:07:02.760Z,3.58
2018-11-22T14:12:04.941Z,3.62
2018-11-22T14:17:07.113Z,3.72
2018-11-22T14:22:09.242Z,3.63
2018-11-22T14:27:11.390Z,3.49
2018-11-22T14:32:13.526Z,3.29
2018-11-22T14:37:15.659Z,3.58
2018-11-22T14:42:17.831Z,3.53
2018-11-22T14:47:19.981Z,3.61
2018-11-22T14:52:22.121Z,3.41
2018-11-22T14:57:24.267Z,3.48
2018-11-22T15:02:26.383Z,3.67
2018-11-22T15:07:28.875Z,3.64
2018-11-22T15:12:30.693Z,3.56
2018-11-22T15:17:32.924Z,3.16
2018-11-22T15:22:35.070Z,3.32
2018-11-22T15:27:37.211Z,3.29
2018-11-22T15:32:39.355Z,3.54
2018-11-22T15:37:41.561Z,3.74
2018-11-22T15:42:44.570Z,3.63
2018-11-22T15:47:46.965Z,3.61
2018-11-22T15:52:49.141Z,3.58
2018-11-22T15:57:52.778Z,3.42
2018-11-22T16:02:55.603Z,3.58
2018-11-22T16:07:57.776Z,3.45
2018-11-22T16:13:02.021Z,3.41
2018-11-22T16:18:04.255Z,3.53
2018-11-22T16:23:06.676Z,3.60
2018-11-22T16:28:08.809Z,3.55
2018-11-22T16:33:10.948Z,3.47
2018-11-22T16:38:13.075Z,3.22
2018-11-22T16:43:15.200Z,3.47
2018-11-22T16:48:17.367Z,3.49
2018-11-22T16:53:19.515Z,3.45
2018-11-22T16:58:21.707Z,3.20
2018-11-22T17:03:23.844Z,3.39
2018-11-22T17:08:26.093Z,3.57
2018-11-22T17:13:28.223Z,3.39
2018-11-22T17:18:30.379Z,3.48
2018-11-22T17:23:32.575Z,3.45
2018-11-22T17:28:34.707Z,3.39
2018-11-22T17:33:36.852Z,3.17
2018-11-22T17:38:39.020Z,3.10
2018-11-22T17:43:41.176Z,3.10
2018-11-22T17:48:43.886Z,3.48
2018-11-22T17:53:46.035Z,3.29
2018-11-22T17:58:48.257Z,2.92
2018-11-22T18:03:50.428Z,3.34
2018-11-22T18:08:52.579Z,3.13
2018-11-22T18:13:54.791Z,2.68
2018-11-22T18:18:57.011Z,2.88
2018-11-22T18:23:59.186Z,3.21
2018-11-22T18:29:01.591Z,2.85
2018-11-22T18:34:03.814Z,2.85
2018-11-22T18:39:07.460Z,3.06
2018-11-22T18:44:09.678Z,2.90
2018-11-22T18:49:13.571Z,2.74
2018-11-22T18:54:15.846Z,2.81
2018-11-22T18:59:18.090Z,2.86
2018-11-22T19:04:20.297Z,2.76
2018-11-22T19:09:22.509Z,2.83
2018-11-22T19:14:24.775Z,2.58
2018-11-22T19:19:27.159Z,2.96
2018-11-22T19:24:29.396Z,2.93
2018-11-22T19:29:31.650Z,2.99
2018-11-22T19:34:34.164Z,3.18
2018-11-22T19:39:36.396Z,2.87
2018-11-22T19:44:38.721Z,2.70
2018-11-22T19:49:41.165Z,2.94
2018-11-22T19:54:43.718Z,3.07
2018-11-22T19:59:46.213Z,3.00
2018-11-22T20:04:48.523Z,3.15
2018-11-22T20:09:50.865Z,3.00
2018-11-22T20:14:53.150Z,2.60
2018-11-22T20:19:55.416Z,2.61
2018-11-22T20:24:57.970Z,2.85
2018-11-22T20:30:00.627Z,2.84
2018-11-22T20:35:03.105Z,3.05
2018-11-22T20:40:06.231Z,3.21
2018-11-22T20:45:10.659Z,3.31
2018-11-22T20:50:16.425Z,3.18
2018-11-22T20:55:24.712Z,3.11
2018-11-22T21:00:28.329Z,3.20
2018-11-22T21:05:30.803Z,3.17
2018-11-22T21:10:33.541Z,2.92
2018-11-22T21:15:36.232Z,3.10
2018-11-22T21:20:39.922Z,3.00
2018-11-22T21:25:42.192Z,2.95
2018-11-22T21:30:44.355Z,2.93
2018-11-22T21:35:46.577Z,3.12
2018-11-22T21:40:48.782Z,3.08
2018-11-22T21:45:50.989Z,3.20
2018-11-22T21:50:53.156Z,3.38
2018-11-22T21:55:55.353Z,3.55
2018-11-22T22:00:57.551Z,3.54
2018-11-22T22:05:59.721Z,3.51
2018-11-22T22:11:01.910Z,3.13
2018-11-22T22:16:04.373Z,3.25
2018-11-22T22:21:06.557Z,3.17
2018-11-22T22:26:08.747Z,3.26
2018-11-22T22:31:10.907Z,3.17
2018-11-22T22:36:13.068Z,3.31
2018-11-22T22:41:15.205Z,3.17
2018-11-22T22:46:17.642Z,3.15
2018-11-22T22:51:19.868Z,3.38
2018-11-22T22:56:22.055Z,3.22
2018-11-22T23:01:24.224Z,2.71
2018-11-22T23:06:26.375Z,2.91
2018-11-22T23:11:29.642Z,3.30
2018-11-22T23:16:31.801Z,3.12
2018-11-22T23:21:33.964Z,3.43
2018-11-22T23:26:36.112Z,3.49
2018-11-22T23:31:38.287Z,3.38
2018-11-22T23:36:40.411Z,3.21
2018-11-22T23:41:42.571Z,3.50
2018-11-22T23:46:44.705Z,2.90
2018-11-22T23:51:46.833Z,3.22
2018-11-22T23:56:48.951Z,3.32
